createdAt,value
2023-04-26T00:00:10.094Z,101794.84
2023-04-26T00:02:40.321Z,101797.56
2023-04-26T00:05:10.071Z,101795.09
2023-04-26T00:07:39.268Z,101791.63
2023-04-26T00:10:08.604Z,101793.44
2023-04-26T00:12:37.569Z,101798.97
2023-04-26T00:15:06.642Z,101798.81
2023-04-26T00:17:34.880Z,101806.03
2023-04-26T00:20:07.183Z,101791.88
2023-04-26T00:22:35.428Z,101790.22
2023-04-26T00:25:03.560Z,101786.91
2023-04-26T00:27:31.949Z,101787.75
2023-04-26T00:30:00.109Z,101784.28
2023-04-26T00:32:29.981Z,101788.69
2023-04-26T00:34:58.161Z,101787.88
2023-04-26T00:37:27.786Z,101784.41
2023-04-26T00:39:57.408Z,101774.72
2023-04-26T00:42:25.742Z,101783.44
2023-04-26T00:44:57.522Z,101783.56
2023-04-26T00:47:26.310Z,101782.91
2023-04-26T00:49:54.680Z,101775.00
2023-04-26T00:52:24.141Z,101771.53
2023-04-26T00:54:56.591Z,101764.31
2023-04-26T00:57:25.299Z,101766.13
2023-04-26T00:59:53.513Z,101756.56
2023-04-26T01:02:21.870Z,101757.66
2023-04-26T01:04:50.653Z,101748.13
2023-04-26T01:07:18.842Z,101742.72
2023-04-26T01:09:48.543Z,101735.78
2023-04-26T01:12:18.236Z,101733.84
2023-04-26T01:14:47.214Z,101732.19
2023-04-26T01:17:15.646Z,101725.00
2023-04-26T01:19:49.187Z,101723.31
2023-04-26T01:22:18.153Z,101724.44
2023-04-26T01:24:51.512Z,101722.63
2023-04-26T01:27:19.872Z,101723.63
2023-04-26T01:29:48.088Z,101721.25
2023-04-26T01:32:21.783Z,101717.78
2023-04-26T01:34:49.939Z,101714.31
2023-04-26T01:37:18.021Z,101706.16
2023-04-26T01:39:50.593Z,101708.66
2023-04-26T01:42:18.833Z,101702.41
2023-04-26T01:44:47.061Z,101704.47
2023-04-26T01:47:15.281Z,101703.53
2023-04-26T01:49:43.365Z,101703.66
2023-04-26T01:52:11.703Z,101695.66
2023-04-26T01:54:39.871Z,101689.53
2023-04-26T01:57:09.644Z,101687.75
2023-04-26T01:59:37.817Z,101684.25
2023-04-26T02:02:06.116Z,101693.13
2023-04-26T02:04:34.321Z,101685.38
2023-04-26T02:07:02.507Z,101693.13
2023-04-26T02:09:30.727Z,101697.41
2023-04-26T02:11:58.780Z,101696.47
2023-04-26T02:14:28.344Z,101697.31
2023-04-26T02:16:57.532Z,101691.06
2023-04-26T02:19:25.972Z,101685.81
2023-04-26T02:21:57.338Z,101681.22
2023-04-26T02:24:25.962Z,101682.19
2023-04-26T02:26:55.212Z,101675.97
2023-04-26T02:29:39.998Z,101670.84
2023-04-26T02:32:12.394Z,101675.44
2023-04-26T02:34:40.862Z,101679.88
2023-04-26T02:37:09.165Z,101675.53
2023-04-26T02:39:37.665Z,101669.44
2023-04-26T02:42:10.135Z,101669.59
2023-04-26T02:44:39.878Z,101668.88
2023-04-26T02:47:08.414Z,101666.97
2023-04-26T02:49:38.336Z,101652.84
2023-04-26T02:52:06.663Z,101659.91
2023-04-26T02:54:34.948Z,101651.03
2023-04-26T02:57:03.250Z,101646.75
2023-04-26T02:59:31.640Z,101649.53
2023-04-26T03:01:59.839Z,101645.09
2023-04-26T03:04:28.963Z,101640.81
2023-04-26T03:06:58.666Z,101632.78
2023-04-26T03:09:26.759Z,101637.22
2023-04-26T03:11:54.961Z,101641.63
2023-04-26T03:14:23.234Z,101645.78
2023-04-26T03:16:51.427Z,101643.97
2023-04-26T03:19:19.975Z,101645.78
2023-04-26T03:21:48.059Z,101643.28
2023-04-26T03:24:17.729Z,101644.13
2023-04-26T03:26:46.187Z,101640.50
2023-04-26T03:29:14.446Z,101634.44
2023-04-26T03:31:42.670Z,101628.19
2023-04-26T03:34:11.683Z,101631.78
2023-04-26T03:36:39.933Z,101629.16
2023-04-26T03:39:08.107Z,101630.81
2023-04-26T03:41:39.715Z,101626.53
2023-04-26T03:44:08.171Z,101634.44
2023-04-26T03:46:36.533Z,101630.97
2023-04-26T03:49:04.874Z,101625.72
2023-04-26T03:51:33.011Z,101623.06
2023-04-26T03:54:01.241Z,101611.72
2023-04-26T03:56:29.358Z,101615.19
2023-04-26T03:58:59.047Z,101608.13
2023-04-26T04:01:27.208Z,101605.63
2023-04-26T04:03:55.581Z,101609.09
2023-04-26T04:06:24.119Z,101603.97
2023-04-26T04:08:52.588Z,101601.19
2023-04-26T04:11:20.963Z,101597.03
2023-04-26T04:13:49.287Z,101598.16
2023-04-26T04:16:19.350Z,101597.03
2023-04-26T04:18:47.641Z,101589.28
2023-04-26T04:21:15.828Z,101592.91
2023-04-26T04:23:44.720Z,101577.94
2023-04-26T04:26:13.034Z,101584.03
2023-04-26T04:28:42.589Z,101577.94
2023-04-26T04:31:10.879Z,101582.38
2023-04-26T04:33:40.532Z,101583.34
2023-04-26T04:36:09.761Z,101584.31
2023-04-26T04:38:37.972Z,101579.03
2023-04-26T04:41:06.281Z,101579.03
2023-04-26T04:43:34.592Z,101577.38
2023-04-26T04:46:02.950Z,101582.94
2023-04-26T04:48:31.232Z,101579.47
2023-04-26T04:51:00.923Z,101582.94
2023-04-26T04:53:29.094Z,101584.03
2023-04-26T04:55:57.481Z,101585.84
2023-04-26T04:58:25.665Z,101586.00
2023-04-26T05:00:54.372Z,101587.09
2023-04-26T05:03:23.101Z,101583.38
2023-04-26T05:05:51.816Z,101582.38
2023-04-26T05:08:21.285Z,101582.25
2023-04-26T05:10:49.604Z,101577.94
2023-04-26T05:13:17.758Z,101577.13
2023-04-26T05:15:45.912Z,101579.59
2023-04-26T05:18:14.179Z,101575.19
2023-04-26T05:20:42.571Z,101582.94
2023-04-26T05:23:11.050Z,101582.94
2023-04-26T05:25:41.879Z,101580.31
2023-04-26T05:28:14.098Z,101579.03
2023-04-26T05:30:42.305Z,101575.47
2023-04-26T05:33:11.150Z,101587.63
2023-04-26T05:35:39.430Z,101585.69
2023-04-26T05:38:07.741Z,101592.59
2023-04-26T05:40:36.093Z,101584.59
2023-04-26T05:43:05.996Z,101588.72
2023-04-26T05:45:34.368Z,101597.44
2023-04-26T05:48:02.659Z,101597.31
2023-04-26T05:50:31.365Z,101593.56
2023-04-26T05:52:59.576Z,101588.19
2023-04-26T05:55:27.850Z,101594.13
2023-04-26T05:57:56.381Z,101588.72
2023-04-26T06:00:26.807Z,101602.56
2023-04-26T06:02:55.193Z,101592.88
2023-04-26T06:05:23.882Z,101587.34
2023-04-26T06:07:53.181Z,101588.03
2023-04-26T06:10:21.608Z,101584.28
2023-04-26T06:12:50.206Z,101579.56
2023-04-26T06:15:18.511Z,101579.28
2023-04-26T06:17:48.407Z,101577.31
2023-04-26T06:20:21.863Z,101581.34
2023-04-26T06:22:50.446Z,101574.97
2023-04-26T06:25:19.225Z,101582.44
2023-04-26T06:27:50.071Z,101587.56
2023-04-26T06:30:18.394Z,101589.38
2023-04-26T06:32:47.989Z,101595.59
2023-04-26T06:35:16.664Z,101592.97
2023-04-26T06:37:44.856Z,101606.25
2023-04-26T06:40:15.987Z,101605.31
2023-04-26T06:42:44.245Z,101602.53
2023-04-26T06:45:13.269Z,101609.44
2023-04-26T06:47:41.534Z,101609.16
2023-04-26T06:50:12.417Z,101608.03
2023-04-26T06:52:40.620Z,101599.19
2023-04-26T06:55:10.204Z,101609.00
2023-04-26T06:57:38.495Z,101603.59
2023-04-26T07:00:09.773Z,101606.09
2023-04-26T07:02:38.234Z,101608.72
2023-04-26T07:05:07.526Z,101611.34
2023-04-26T07:07:37.307Z,101614.22
2023-04-26T07:10:06.149Z,101605.22
2023-04-26T07:12:34.344Z,101612.28
2023-04-26T07:15:02.660Z,101614.88
2023-04-26T07:17:30.935Z,101613.25
2023-04-26T07:19:59.322Z,101611.41
2023-04-26T07:22:27.517Z,101607.91
2023-04-26T07:24:57.083Z,101604.44
2023-04-26T07:27:25.365Z,101611.66
2023-04-26T07:29:56.313Z,101609.75
2023-04-26T07:32:24.611Z,101596.78
2023-04-26T07:34:52.996Z,101599.78
2023-04-26T07:37:21.095Z,101593.22
2023-04-26T07:39:49.290Z,101598.50
2023-04-26T07:42:18.971Z,101597.50
2023-04-26T07:44:49.304Z,101605.19
2023-04-26T07:47:17.600Z,101606.16
2023-04-26T07:49:47.643Z,101606.03
2023-04-26T07:52:15.965Z,101614.16
2023-04-26T07:54:46.929Z,101611.84
2023-04-26T07:57:15.041Z,101614.16
2023-04-26T07:59:44.782Z,101604.91
2023-04-26T08:02:13.126Z,101602.09
2023-04-26T08:04:48.794Z,101611.50
2023-04-26T08:07:20.507Z,101605.91
2023-04-26T08:09:49.236Z,101608.72
2023-04-26T08:12:17.717Z,101611.19
2023-04-26T08:14:47.790Z,101617.47
2023-04-26T08:17:16.014Z,101618.81
2023-04-26T08:19:44.188Z,101610.56
2023-04-26T08:22:12.427Z,101608.97
2023-04-26T08:24:40.604Z,101614.06
2023-04-26T08:27:09.002Z,101623.53
2023-04-26T08:29:37.101Z,101622.88
2023-04-26T08:32:07.288Z,101623.41
2023-04-26T08:34:35.471Z,101621.41
2023-04-26T08:37:03.756Z,101625.56
2023-04-26T08:39:32.441Z,101622.09
2023-04-26T08:42:08.560Z,101624.88
2023-04-26T08:44:37.905Z,101629.50
2023-04-26T08:47:14.859Z,101629.84
2023-04-26T08:49:45.117Z,101631.19
2023-04-26T08:52:14.883Z,101621.63
2023-04-26T08:54:43.130Z,101623.78
2023-04-26T08:57:11.636Z,101617.50
2023-04-26T08:59:41.125Z,101619.31
2023-04-26T09:02:12.270Z,101633.41
2023-04-26T09:04:41.588Z,101630.75
2023-04-26T09:07:14.506Z,101634.06
2023-04-26T09:09:44.005Z,101630.09
2023-04-26T09:12:12.593Z,101631.63
2023-04-26T09:14:41.594Z,101632.50
2023-04-26T09:17:30.980Z,101624.59
2023-04-26T09:19:59.649Z,101628.28
2023-04-26T09:22:32.589Z,101630.91
2023-04-26T09:25:01.853Z,101624.97
2023-04-26T09:27:37.051Z,101625.28
2023-04-26T09:30:09.436Z,101624.78
2023-04-26T09:32:51.270Z,101631.41
2023-04-26T09:35:31.654Z,101628.94
2023-04-26T09:38:08.590Z,101635.72
2023-04-26T09:40:41.700Z,101640.34
2023-04-26T09:43:12.976Z,101629.75
2023-04-26T09:45:50.330Z,101629.59
2023-04-26T09:48:25.901Z,101633.06
2023-04-26T09:50:55.336Z,101632.06
2023-04-26T09:53:31.173Z,101634.72
2023-04-26T09:56:08.543Z,101633.56
2023-04-26T09:58:38.218Z,101636.38
2023-04-26T10:01:08.245Z,101636.88
2023-04-26T10:03:38.777Z,101643.84
2023-04-26T10:06:11.389Z,101639.03
2023-04-26T10:08:43.755Z,101639.34
2023-04-26T10:11:12.903Z,101637.72
2023-04-26T10:13:43.041Z,101643.00
2023-04-26T10:16:11.976Z,101638.38
2023-04-26T10:18:41.480Z,101627.94
2023-04-26T10:21:14.028Z,101626.78
2023-04-26T10:23:42.821Z,101624.63
2023-04-26T10:26:47.257Z,101627.44
2023-04-26T10:29:15.601Z,101629.25
2023-04-26T10:32:08.919Z,101622.97
2023-04-26T10:34:38.927Z,101625.44
2023-04-26T10:37:14.850Z,101625.41
2023-04-26T10:39:44.748Z,101627.31
2023-04-26T10:42:26.997Z,101629.13
2023-04-26T10:44:56.464Z,101634.94
2023-04-26T10:47:32.789Z,101625.47
2023-04-26T10:50:08.415Z,101631.09
2023-04-26T10:52:37.290Z,101629.59
2023-04-26T10:55:06.876Z,101625.91
2023-04-26T10:57:54.492Z,101630.56
2023-04-26T11:00:33.214Z,101626.72
2023-04-26T11:03:06.742Z,101623.09
2023-04-26T11:05:39.158Z,101627.22
2023-04-26T11:08:09.611Z,101627.72
2023-04-26T11:10:41.099Z,101625.56
2023-04-26T11:13:09.665Z,101627.88
2023-04-26T11:15:37.938Z,101620.88
2023-04-26T11:18:06.593Z,101626.50
2023-04-26T11:20:36.713Z,101627.66
2023-04-26T11:23:05.130Z,101622.06
2023-04-26T11:25:33.317Z,101621.38
2023-04-26T11:28:02.434Z,101626.88
2023-04-26T11:30:32.059Z,101623.53
2023-04-26T11:33:01.553Z,101621.47
2023-04-26T11:35:30.982Z,101629.63
2023-04-26T11:38:01.629Z,101631.41
2023-04-26T11:40:31.655Z,101629.69
2023-04-26T11:43:03.716Z,101634.00
2023-04-26T11:45:34.302Z,101631.19
2023-04-26T11:48:04.681Z,101632.59
2023-04-26T11:50:34.635Z,101645.16
2023-04-26T11:53:08.108Z,101646.13
2023-04-26T11:55:37.051Z,101650.09
2023-04-26T11:58:13.934Z,101655.78
2023-04-26T12:00:58.166Z,101653.03
2023-04-26T12:03:31.112Z,101649.63
2023-04-26T12:05:59.621Z,101650.44
2023-04-26T12:08:29.202Z,101659.72
2023-04-26T12:11:01.360Z,101650.84
2023-04-26T12:13:30.272Z,101655.47
2023-04-26T12:15:58.396Z,101658.75
2023-04-26T12:18:32.495Z,101659.06
2023-04-26T12:21:01.793Z,101649.00
2023-04-26T12:23:39.527Z,101651.56
2023-04-26T12:26:11.147Z,101660.19
2023-04-26T12:28:39.868Z,101657.16
2023-04-26T12:31:08.564Z,101664.50
2023-04-26T12:33:37.516Z,101655.25
2023-04-26T12:36:12.909Z,101652.75
2023-04-26T12:38:42.936Z,101660.38
2023-04-26T12:41:11.640Z,101666.81
2023-04-26T12:43:42.857Z,101661.06
2023-04-26T12:46:10.989Z,101646.78
2023-04-26T12:48:39.208Z,101656.69
2023-04-26T12:51:07.643Z,101656.31
2023-04-26T12:53:37.312Z,101659.19
2023-04-26T12:56:07.599Z,101660.28
2023-04-26T12:58:35.814Z,101657.97
2023-04-26T13:01:03.963Z,101659.09
2023-04-26T13:03:32.349Z,101662.25
2023-04-26T13:06:00.728Z,101658.78
2023-04-26T13:08:29.882Z,101653.28
2023-04-26T13:10:58.127Z,101656.69
2023-04-26T13:13:39.770Z,101653.63
2023-04-26T13:16:11.941Z,101654.50
2023-04-26T13:18:40.988Z,101652.88
2023-04-26T13:21:09.186Z,101647.41
2023-04-26T13:23:37.383Z,101652.31
2023-04-26T13:26:05.597Z,101644.34
2023-04-26T13:28:37.425Z,101654.59
2023-04-26T13:31:07.596Z,101639.31
2023-04-26T13:33:35.749Z,101643.13
2023-04-26T13:36:04.104Z,101652.56
2023-04-26T13:38:33.055Z,101649.50
2023-04-26T13:41:01.536Z,101646.78
2023-04-26T13:43:29.732Z,101640.63
2023-04-26T13:45:59.333Z,101639.44
2023-04-26T13:48:27.560Z,101635.31
2023-04-26T13:50:56.346Z,101638.56
2023-04-26T13:53:24.552Z,101641.63
2023-04-26T13:55:57.286Z,101631.72
2023-04-26T13:58:25.363Z,101625.81
2023-04-26T14:00:56.140Z,101644.78
2023-04-26T14:03:26.933Z,101633.44
2023-04-26T14:05:56.180Z,101638.97
2023-04-26T14:08:24.249Z,101642.47
2023-04-26T14:10:52.553Z,101647.44
2023-04-26T14:13:20.721Z,101638.94
2023-04-26T14:15:48.951Z,101642.75
2023-04-26T14:18:18.124Z,101640.88
2023-04-26T14:20:48.336Z,101640.34
2023-04-26T14:23:17.029Z,101642.16
2023-04-26T14:25:45.244Z,101640.88
2023-04-26T14:28:16.615Z,101645.94
2023-04-26T14:30:44.699Z,101659.44
2023-04-26T14:33:13.072Z,101643.22
2023-04-26T14:35:41.456Z,101647.25
2023-04-26T14:38:11.057Z,101642.13
2023-04-26T14:40:39.277Z,101640.00
2023-04-26T14:43:07.569Z,101646.84
2023-04-26T14:45:44.109Z,101642.38
2023-04-26T14:48:13.476Z,101643.00
2023-04-26T14:50:41.957Z,101641.16
2023-04-26T14:53:11.684Z,101642.38
2023-04-26T14:55:39.858Z,101638.69
2023-04-26T14:58:08.200Z,101644.00
2023-04-26T15:00:36.554Z,101647.34
2023-04-26T15:03:05.465Z,101647.84
2023-04-26T15:05:33.978Z,101649.31
2023-04-26T15:08:02.156Z,101636.09
2023-04-26T15:10:31.705Z,101647.06
2023-04-26T15:13:00.240Z,101635.97
2023-04-26T15:19:19.237Z,101651.84
2023-04-26T15:21:47.421Z,101650.84
2023-04-26T15:24:15.525Z,101649.69
2023-04-26T15:26:45.282Z,101640.94
2023-04-26T15:29:14.730Z,101642.47
2023-04-26T15:31:42.989Z,101638.16
2023-04-26T15:34:11.154Z,101636.66
2023-04-26T15:36:39.480Z,101636.66
2023-04-26T15:39:09.160Z,101625.75
2023-04-26T15:41:37.450Z,101628.72
2023-04-26T15:44:07.010Z,101629.22
2023-04-26T15:46:37.990Z,101624.75
2023-04-26T15:49:06.400Z,101627.44
2023-04-26T15:51:34.508Z,101617.34
2023-04-26T15:54:02.742Z,101618.97
2023-04-26T15:56:30.979Z,101608.38
2023-04-26T15:59:01.219Z,101621.13
2023-04-26T16:01:31.498Z,101618.34
2023-04-26T16:03:59.809Z,101612.88
2023-04-26T16:06:28.614Z,101598.34
2023-04-26T16:08:57.030Z,101607.59
2023-04-26T16:11:26.360Z,101613.69
2023-04-26T16:13:54.640Z,101615.53
2023-04-26T16:16:22.961Z,101613.88
2023-04-26T16:18:52.713Z,101613.81
2023-04-26T16:21:20.938Z,101614.13
2023-04-26T16:23:49.794Z,101612.47
2023-04-26T16:26:22.360Z,101610.81
2023-04-26T16:28:51.105Z,101619.41
2023-04-26T16:31:19.994Z,101611.00
2023-04-26T16:33:48.174Z,101610.84
2023-04-26T16:36:18.084Z,101612.81
2023-04-26T16:38:46.219Z,101614.13
2023-04-26T16:41:14.366Z,101612.66
2023-04-26T16:43:42.519Z,101615.22
2023-04-26T16:46:10.843Z,101612.91
2023-04-26T16:48:40.617Z,101613.72
2023-04-26T16:51:09.091Z,101611.78
2023-04-26T16:53:38.897Z,101617.38
2023-04-26T16:56:07.833Z,101611.25
2023-04-26T16:58:36.060Z,101620.50
2023-04-26T17:01:05.110Z,101615.69
2023-04-26T17:03:33.443Z,101616.81
2023-04-26T17:06:02.181Z,101607.41
2023-04-26T17:08:30.547Z,101604.94
2023-04-26T17:11:00.042Z,101618.41
2023-04-26T17:13:29.525Z,101612.94
2023-04-26T17:15:58.367Z,101612.44
2023-04-26T17:18:26.822Z,101613.09
2023-04-26T17:20:56.511Z,101612.59
2023-04-26T17:23:24.803Z,101615.25
2023-04-26T17:25:55.123Z,101616.19
2023-04-26T17:28:25.092Z,101619.66
2023-04-26T17:30:53.507Z,101624.47
2023-04-26T17:33:21.686Z,101609.38
2023-04-26T17:35:52.323Z,101617.13
2023-04-26T17:38:20.665Z,101611.97
2023-04-26T17:40:53.347Z,101612.13
2023-04-26T17:43:21.773Z,101611.97
2023-04-26T17:45:51.431Z,101616.06
2023-04-26T17:48:19.722Z,101615.34
2023-04-26T17:50:47.980Z,101605.31
2023-04-26T17:53:16.406Z,101599.50
2023-04-26T17:55:45.182Z,101612.06
2023-04-26T17:58:13.466Z,101607.59
2023-04-26T18:00:41.510Z,101597.97
2023-04-26T18:03:12.301Z,101597.81
2023-04-26T18:05:40.787Z,101598.78
2023-04-26T18:08:09.023Z,101605.72
2023-04-26T18:10:37.305Z,101599.25
2023-04-26T18:13:05.764Z,101593.69
2023-04-26T18:15:33.895Z,101593.97
2023-04-26T18:18:05.641Z,101588.84
2023-04-26T18:20:36.491Z,101579.69
2023-04-26T18:23:04.660Z,101585.97
2023-04-26T18:25:33.039Z,101577.91
2023-04-26T18:28:01.290Z,101576.63
2023-04-26T18:30:29.450Z,101576.38
2023-04-26T18:32:57.656Z,101580.53
2023-04-26T18:35:25.933Z,101577.91
2023-04-26T18:37:55.674Z,101570.44
2023-04-26T18:40:24.054Z,101576.84
2023-04-26T18:42:52.144Z,101570.59
2023-04-26T18:45:20.296Z,101572.41
2023-04-26T18:47:48.661Z,101565.16
2023-04-26T18:50:17.042Z,101574.88
2023-04-26T18:52:45.178Z,101565.31
2023-04-26T18:55:14.977Z,101567.28
2023-04-26T18:57:43.191Z,101567.69
2023-04-26T19:00:12.160Z,101567.03
2023-04-26T19:02:41.364Z,101566.84
2023-04-26T19:05:11.693Z,101577.72
2023-04-26T19:07:41.890Z,101571.25
2023-04-26T19:10:10.989Z,101582.94
2023-04-26T19:12:40.754Z,101568.94
2023-04-26T19:15:09.781Z,101578.94
2023-04-26T19:17:38.107Z,101577.28
2023-04-26T19:20:12.491Z,101576.06
2023-04-26T19:22:41.977Z,101578.22
2023-04-26T19:25:10.954Z,101575.16
2023-04-26T19:27:40.799Z,101581.59
2023-04-26T19:30:10.067Z,101586.50
2023-04-26T19:32:38.676Z,101588.59
2023-04-26T19:35:12.614Z,101589.44
2023-04-26T19:37:41.081Z,101598.03
2023-04-26T19:40:10.520Z,101594.03
2023-04-26T19:42:40.098Z,101591.53
2023-04-26T19:45:09.295Z,101599.31
2023-04-26T19:47:37.531Z,101592.38
2023-04-26T19:50:06.479Z,101588.31
2023-04-26T19:52:34.719Z,101596.34
2023-04-26T19:55:03.576Z,101585.69
2023-04-26T19:57:31.826Z,101583.31
2023-04-26T20:00:01.433Z,101596.59
2023-04-26T20:02:29.793Z,101589.50
2023-04-26T20:04:58.269Z,101585.22
2023-04-26T20:07:26.877Z,101581.75
2023-04-26T20:09:55.080Z,101581.38
2023-04-26T20:12:23.505Z,101585.50
2023-04-26T20:14:51.755Z,101585.13
2023-04-26T20:17:21.799Z,101581.38
2023-04-26T20:19:49.963Z,101585.81
2023-04-26T20:22:18.219Z,101581.88
2023-04-26T20:24:46.459Z,101579.41
2023-04-26T20:27:14.641Z,101580.94
2023-04-26T20:29:42.772Z,101582.72
2023-04-26T20:32:11.009Z,101581.38
2023-04-26T20:34:40.620Z,101575.78
2023-04-26T20:37:08.851Z,101586.34
2023-04-26T20:39:37.306Z,101587.03
2023-04-26T20:42:05.929Z,101595.78
2023-04-26T20:44:33.964Z,101602.69
2023-04-26T20:47:02.269Z,101598.25
2023-04-26T20:49:30.583Z,101595.63
2023-04-26T20:52:00.153Z,101596.59
2023-04-26T20:54:28.433Z,101591.63
2023-04-26T20:56:56.793Z,101598.53
2023-04-26T20:59:25.698Z,101600.22
2023-04-26T21:01:54.443Z,101596.88
2023-04-26T21:04:23.036Z,101592.16
2023-04-26T21:06:51.379Z,101593.97
2023-04-26T21:09:21.659Z,101595.31
2023-04-26T21:11:49.925Z,101594.50
2023-04-26T21:14:18.005Z,101600.97
2023-04-26T21:16:46.216Z,101596.00
2023-04-26T21:19:14.398Z,101602.09
2023-04-26T21:21:42.574Z,101594.03
2023-04-26T21:24:10.712Z,101599.00
2023-04-26T21:26:40.365Z,101603.97
2023-04-26T21:29:09.589Z,101602.84
2023-04-26T21:31:37.877Z,101599.25
2023-04-26T21:34:06.114Z,101592.97
2023-04-26T21:36:34.232Z,101595.59
2023-04-26T21:39:03.621Z,101591.44
2023-04-26T21:41:31.960Z,101587.16
2023-04-26T21:44:02.202Z,101596.22
2023-04-26T21:46:30.858Z,101600.34
2023-04-26T21:48:59.545Z,101594.09
2023-04-26T21:51:27.926Z,101600.19
2023-04-26T21:53:56.304Z,101593.13
2023-04-26T21:56:25.155Z,101587.53
2023-04-26T21:58:53.472Z,101586.41
2023-04-26T22:01:22.975Z,101585.59
2023-04-26T22:03:51.558Z,101581.97
2023-04-26T22:06:19.947Z,101587.41
2023-04-26T22:08:48.000Z,101563.78
2023-04-26T22:11:16.261Z,101568.06
2023-04-26T22:13:44.438Z,101565.44
2023-04-26T22:16:15.324Z,101567.25
2023-04-26T22:18:45.002Z,101555.88
2023-04-26T22:21:13.185Z,101545.31
2023-04-26T22:23:41.472Z,101544.47
2023-04-26T22:26:09.697Z,101541.84
2023-04-26T22:28:38.023Z,101545.94
2023-04-26T22:31:06.498Z,101543.44
2023-04-26T22:33:34.786Z,101539.66
2023-04-26T22:36:04.590Z,101550.06
2023-04-26T22:38:38.813Z,101540.34
2023-04-26T22:41:07.549Z,101537.38
2023-04-26T22:43:35.966Z,101535.75
2023-04-26T22:46:04.379Z,101532.28
2023-04-26T22:48:35.151Z,101526.16
2023-04-26T22:51:04.911Z,101525.34
2023-04-26T22:53:33.098Z,101528.13
2023-04-26T22:56:01.238Z,101525.47
2023-04-26T22:58:29.475Z,101521.50
2023-04-26T23:00:57.667Z,101521.28
2023-04-26T23:03:26.096Z,101518.34
2023-04-26T23:05:54.402Z,101513.22
2023-04-26T23:08:24.097Z,101523.09
2023-04-26T23:10:52.354Z,101525.03
2023-04-26T23:13:20.454Z,101517.53
2023-04-26T23:15:48.649Z,101519.63
2023-04-26T23:18:16.964Z,101522.41
2023-04-26T23:20:45.763Z,101522.41
2023-04-26T23:23:14.054Z,101504.78
2023-04-26T23:25:43.639Z,101516.16
2023-04-26T23:28:13.756Z,101504.25
2023-04-26T23:30:44.166Z,101507.19
2023-04-26T23:33:12.478Z,101511.94
2023-04-26T23:35:42.465Z,101512.28
2023-04-26T23:38:10.829Z,101514.22
2023-04-26T23:40:38.990Z,101519.19
2023-04-26T23:43:08.745Z,101515.72
2023-04-26T23:45:36.985Z,101520.84
2023-04-26T23:48:05.799Z,101520.72
2023-04-26T23:50:34.091Z,101518.75
2023-04-26T23:53:02.177Z,101519.41
2023-04-26T23:55:30.358Z,101517.44
2023-04-26T23:57:58.707Z,101522.41
